sensor_id;sensor_type;location;lat;lon;timestamp;pressure;altitude;pressure_sealevel;temperature;humidity
35778;BME280;21899;42.662;23.316;2024-01-15T00:01:28;93938.13;;;-3.07;68.68
35778;BME280;21899;42.662;23.316;2024-01-15T00:03:54;93931.91;;;-3.17;68.83
35778;BME280;21899;42.662;23.316;2024-01-15T00:06:19;93948.44;;;-3.20;69.30
35778;BME280;21899;42.662;23.316;2024-01-15T00:08:45;93933.97;;;-3.05;68.39
35778;BME280;21899;42.662;23.316;2024-01-15T00:11:11;93943.09;;;-3.13;69.76
35778;BME280;21899;42.662;23.316;2024-01-15T00:13:36;93922.22;;;-3.23;69.35
35778;BME280;21899;42.662;23.316;2024-01-15T00:16:02;93930.22;;;-3.04;68.35
35778;BME280;21899;42.662;23.316;2024-01-15T00:18:27;93934.31;;;-3.03;68.65
35778;BME280;21899;42.662;23.316;2024-01-15T00:20:53;93919.03;;;-3.08;68.57
35778;BME280;21899;42.662;23.316;2024-01-15T00:23:18;93913.16;;;-3.19;68.75
35778;BME280;21899;42.662;23.316;2024-01-15T00:25:44;93935.06;;;-3.02;68.19
35778;BME280;21899;42.662;23.316;2024-01-15T00:28:09;93917.72;;;-3.23;68.83
35778;BME280;21899;42.662;23.316;2024-01-15T00:30:35;93930.94;;;-3.30;69.08
35778;BME280;21899;42.662;23.316;2024-01-15T00:33:00;93928.03;;;-3.09;68.89
35778;BME280;21899;42.662;23.316;2024-01-15T00:35:26;93945.22;;;-3.04;68.47
35778;BME280;21899;42.662;23.316;2024-01-15T00:37:51;93923.97;;;-3.13;69.37
35778;BME280;21899;42.662;23.316;2024-01-15T00:40:17;93943.09;;;-3.13;69.03
35778;BME280;21899;42.662;23.316;2024-01-15T00:42:42;93945.19;;;-3.31;69.85
35778;BME280;21899;42.662;23.316;2024-01-15T00:45:08;93942.47;;;-3.24;70.34
35778;BME280;21899;42.662;23.316;2024-01-15T00:47:34;93923.69;;;-3.22;69.31
35778;BME280;21899;42.662;23.316;2024-01-15T00:50:00;93938.59;;;-3.12;69.70
35778;BME280;21899;42.662;23.316;2024-01-15T00:52:25;93941.16;;;-3.09;69.90
35778;BME280;21899;42.662;23.316;2024-01-15T00:54:51;93940.81;;;-3.11;69.76
35778;BME280;21899;42.662;23.316;2024-01-15T00:57:16;93942.31;;;-3.10;68.90
35778;BME280;21899;42.662;23.316;2024-01-15T00:59:44;93920.63;;;-3.17;68.90
35778;BME280;21899;42.662;23.316;2024-01-15T01:02:10;93927.03;;;-3.18;68.58
35778;BME280;21899;42.662;23.316;2024-01-15T01:04:35;93931.44;;;-3.42;68.25
35778;BME280;21899;42.662;23.316;2024-01-15T01:07:01;93938.81;;;-3.30;68.13
35778;BME280;21899;42.662;23.316;2024-01-15T01:09:26;93939.56;;;-3.33;68.51
35778;BME280;21899;42.662;23.316;2024-01-15T01:11:54;93912.00;;;-3.48;68.95
35778;BME280;21899;42.662;23.316;2024-01-15T01:14:19;93926.88;;;-3.38;68.97
35778;BME280;21899;42.662;23.316;2024-01-15T01:16:45;93915.69;;;-3.42;69.03
35778;BME280;21899;42.662;23.316;2024-01-15T01:19:10;93932.53;;;-3.39;69.86
35778;BME280;21899;42.662;23.316;2024-01-15T01:21:36;93914.13;;;-3.36;69.81
35778;BME280;21899;42.662;23.316;2024-01-15T01:24:01;93921.88;;;-3.25;70.04
35778;BME280;21899;42.662;23.316;2024-01-15T01:26:27;93917.72;;;-3.23;69.66
35778;BME280;21899;42.662;23.316;2024-01-15T01:28:52;93900.22;;;-3.33;69.46
35778;BME280;21899;42.662;23.316;2024-01-15T01:31:18;93905.66;;;-3.20;69.17
35778;BME280;21899;42.662;23.316;2024-01-15T01:33:43;93909.03;;;-3.20;69.23
35778;BME280;21899;42.662;23.316;2024-01-15T01:36:09;93901.66;;;-3.28;68.15
35778;BME280;21899;42.662;23.316;2024-01-15T01:38:36;93899.69;;;-3.21;68.54
35778;BME280;21899;42.662;23.316;2024-01-15T01:41:01;93890.06;;;-3.31;68.59
35778;BME280;21899;42.662;23.316;2024-01-15T01:43:27;93895.22;;;-3.24;68.52
35778;BME280;21899;42.662;23.316;2024-01-15T01:45:54;93906.75;;;-3.18;68.72
35778;BME280;21899;42.662;23.316;2024-01-15T01:48:22;93882.44;;;-3.22;68.59
35778;BME280;21899;42.662;23.316;2024-01-15T01:50:47;93904.06;;;-3.11;68.17
35778;BME280;21899;42.662;23.316;2024-01-15T01:53:13;93889.84;;;-3.13;68.35
35778;BME280;21899;42.662;23.316;2024-01-15T01:55:39;93887.22;;;-3.13;67.88
35778;BME280;21899;42.662;23.316;2024-01-15T01:58:04;93897.13;;;-2.97;68.41
35778;BME280;21899;42.662;23.316;2024-01-15T02:00:32;93895.66;;;-2.98;68.29
35778;BME280;21899;42.662;23.316;2024-01-15T02:02:59;93866.59;;;-3.15;68.19
35778;BME280;21899;42.662;23.316;2024-01-15T02:05:25;93869.22;;;-3.15;68.05
35778;BME280;21899;42.662;23.316;2024-01-15T02:07:52;93887.44;;;-3.00;67.87
35778;BME280;21899;42.662;23.316;2024-01-15T02:10:17;93864.50;;;-3.27;67.45
35778;BME280;21899;42.662;23.316;2024-01-15T02:12:43;93874.97;;;-3.23;67.42
35778;BME280;21899;42.662;23.316;2024-01-15T02:15:09;93882.03;;;-3.20;67.28
35778;BME280;21899;42.662;23.316;2024-01-15T02:17:35;93878.84;;;-3.31;68.01
35778;BME280;21899;42.662;23.316;2024-01-15T02:20:00;93838.38;;;-3.64;68.66
35778;BME280;21899;42.662;23.316;2024-01-15T02:22:26;93854.38;;;-3.55;69.00
35778;BME280;21899;42.662;23.316;2024-01-15T02:24:51;93864.09;;;-3.52;69.10
35778;BME280;21899;42.662;23.316;2024-01-15T02:27:17;93820.00;;;-3.64;69.59
35778;BME280;21899;42.662;23.316;2024-01-15T02:29:43;93815.13;;;-3.62;69.80
35778;BME280;21899;42.662;23.316;2024-01-15T02:32:09;93828.25;;;-3.62;69.47
35778;BME280;21899;42.662;23.316;2024-01-15T02:34:34;93784.44;;;-3.95;69.65
35778;BME280;21899;42.662;23.316;2024-01-15T02:37:00;93817.84;;;-3.69;70.03
35778;BME280;21899;42.662;23.316;2024-01-15T02:39:25;93815.06;;;-3.89;70.40
35778;BME280;21899;42.662;23.316;2024-01-15T02:41:51;93823.06;;;-3.69;70.23
35778;BME280;21899;42.662;23.316;2024-01-15T02:44:16;93816.19;;;-3.59;69.53
35778;BME280;21899;42.662;23.316;2024-01-15T02:46:42;93815.34;;;-3.53;69.31
35778;BME280;21899;42.662;23.316;2024-01-15T02:49:07;93822.41;;;-3.46;68.95
35778;BME280;21899;42.662;23.316;2024-01-15T02:51:33;93826.47;;;-3.42;69.63
35778;BME280;21899;42.662;23.316;2024-01-15T02:53:58;93832.78;;;-3.36;69.61
35778;BME280;21899;42.662;23.316;2024-01-15T02:56:24;93815.13;;;-3.35;69.17
35778;BME280;21899;42.662;23.316;2024-01-15T02:58:49;93831.47;;;-3.24;69.28
35778;BME280;21899;42.662;23.316;2024-01-15T03:01:15;93821.63;;;-3.17;69.08
35778;BME280;21899;42.662;23.316;2024-01-15T03:03:40;93821.41;;;-3.03;68.71
35778;BME280;21899;42.662;23.316;2024-01-15T03:06:06;93821.06;;;-3.05;69.06
35778;BME280;21899;42.662;23.316;2024-01-15T03:08:31;93818.34;;;-2.97;68.88
35778;BME280;21899;42.662;23.316;2024-01-15T03:10:57;93820.53;;;-2.92;68.72
35778;BME280;21899;42.662;23.316;2024-01-15T03:13:22;93795.88;;;-2.98;68.34
35778;BME280;21899;42.662;23.316;2024-01-15T03:15:48;93809.63;;;-2.91;68.23
35778;BME280;21899;42.662;23.316;2024-01-15T03:18:13;93794.38;;;-2.99;67.73
35778;BME280;21899;42.662;23.316;2024-01-15T03:20:39;93815.28;;;-2.92;67.96
35778;BME280;21899;42.662;23.316;2024-01-15T03:23:04;93799.34;;;-2.82;67.93
35778;BME280;21899;42.662;23.316;2024-01-15T03:25:30;93792.66;;;-3.10;68.13
35778;BME280;21899;42.662;23.316;2024-01-15T03:27:55;93800.25;;;-2.92;68.41
35778;BME280;21899;42.662;23.316;2024-01-15T03:30:21;93795.53;;;-2.77;68.23
35778;BME280;21899;42.662;23.316;2024-01-15T03:32:46;93788.91;;;-2.85;67.84
35778;BME280;21899;42.662;23.316;2024-01-15T03:35:12;93801.13;;;-2.98;68.26
35778;BME280;21899;42.662;23.316;2024-01-15T03:37:38;93786.63;;;-2.83;68.44
35778;BME280;21899;42.662;23.316;2024-01-15T03:40:04;93778.53;;;-2.96;68.15
35778;BME280;21899;42.662;23.316;2024-01-15T03:42:29;93780.88;;;-2.78;68.21
35778;BME280;21899;42.662;23.316;2024-01-15T03:44:55;93791.75;;;-2.76;68.77
35778;BME280;21899;42.662;23.316;2024-01-15T03:47:20;93777.19;;;-2.81;67.76
35778;BME280;21899;42.662;23.316;2024-01-15T03:49:46;93789.97;;;-2.60;67.59
35778;BME280;21899;42.662;23.316;2024-01-15T03:52:11;93799.63;;;-2.53;68.09
35778;BME280;21899;42.662;23.316;2024-01-15T03:54:37;93795.72;;;-2.45;67.66
35778;BME280;21899;42.662;23.316;2024-01-15T03:57:03;93805.44;;;-2.65;67.88
35778;BME280;21899;42.662;23.316;2024-01-15T03:59:28;93795.31;;;-2.63;67.55
35778;BME280;21899;42.662;23.316;2024-01-15T04:01:54;93797.38;;;-2.74;68.03
35778;BME280;21899;42.662;23.316;2024-01-15T04:04:19;93785.94;;;-2.87;68.33
35778;BME280;21899;42.662;23.316;2024-01-15T04:06:45;93776.00;;;-2.99;68.19
35778;BME280;21899;42.662;23.316;2024-01-15T04:09:12;93777.75;;;-2.93;68.53
35778;BME280;21899;42.662;23.316;2024-01-15T04:11:38;93779.97;;;-2.91;68.22
35778;BME280;21899;42.662;23.316;2024-01-15T04:14:03;93776.97;;;-2.90;68.66
35778;BME280;21899;42.662;23.316;2024-01-15T04:16:29;93781.47;;;-2.90;68.87
35778;BME280;21899;42.662;23.316;2024-01-15T04:18:54;93778.50;;;-2.92;68.14
35778;BME280;21899;42.662;23.316;2024-01-15T04:21:20;93760.56;;;-3.21;69.22
35778;BME280;21899;42.662;23.316;2024-01-15T04:23:45;93776.66;;;-3.19;69.26
35778;BME280;21899;42.662;23.316;2024-01-15T04:26:11;93750.50;;;-3.26;69.17
35778;BME280;21899;42.662;23.316;2024-01-15T04:28:36;93761.53;;;-3.38;69.59
35778;BME280;21899;42.662;23.316;2024-01-15T04:31:02;93781.41;;;-3.37;69.94
35778;BME280;21899;42.662;23.316;2024-01-15T04:33:27;93782.34;;;-3.50;71.12
35778;BME280;21899;42.662;23.316;2024-01-15T04:35:53;93780.75;;;-3.44;70.75
35778;BME280;21899;42.662;23.316;2024-01-15T04:38:18;93774.19;;;-3.56;71.27
35778;BME280;21899;42.662;23.316;2024-01-15T04:40:44;93771.94;;;-3.57;71.09
35778;BME280;21899;42.662;23.316;2024-01-15T04:43:09;93749.09;;;-3.57;70.63
35778;BME280;21899;42.662;23.316;2024-01-15T04:45:34;93754.66;;;-3.55;71.13
35778;BME280;21899;42.662;23.316;2024-01-15T04:48:00;93768.34;;;-3.40;70.73
35778;BME280;21899;42.662;23.316;2024-01-15T04:50:25;93762.09;;;-3.50;70.83
35778;BME280;21899;42.662;23.316;2024-01-15T04:52:51;93747.84;;;-3.75;71.20
35778;BME280;21899;42.662;23.316;2024-01-15T04:55:16;93762.88;;;-3.53;71.33
35778;BME280;21899;42.662;23.316;2024-01-15T04:57:42;93755.03;;;-3.53;71.10
35778;BME280;21899;42.662;23.316;2024-01-15T05:00:08;93748.66;;;-3.52;71.36
35778;BME280;21899;42.662;23.316;2024-01-15T05:02:33;93756.84;;;-3.50;71.47
35778;BME280;21899;42.662;23.316;2024-01-15T05:04:59;93754.47;;;-3.41;71.06
35778;BME280;21899;42.662;23.316;2024-01-15T05:07:25;93748.56;;;-3.45;71.28
35778;BME280;21899;42.662;23.316;2024-01-15T05:09:50;93754.19;;;-3.46;71.54
35778;BME280;21899;42.662;23.316;2024-01-15T05:12:15;93745.59;;;-3.47;71.87
35778;BME280;21899;42.662;23.316;2024-01-15T05:14:41;93743.31;;;-3.45;70.80
35778;BME280;21899;42.662;23.316;2024-01-15T05:17:06;93726.75;;;-3.42;70.89
35778;BME280;21899;42.662;23.316;2024-01-15T05:19:32;93741.69;;;-3.62;71.97
35778;BME280;21899;42.662;23.316;2024-01-15T05:21:57;93734.28;;;-3.70;72.70
35778;BME280;21899;42.662;23.316;2024-01-15T05:24:23;93749.88;;;-3.87;73.47
35778;BME280;21899;42.662;23.316;2024-01-15T05:26:48;93731.25;;;-3.96;73.53
35778;BME280;21899;42.662;23.316;2024-01-15T05:29:14;93761.44;;;-3.84;74.11
35778;BME280;21899;42.662;23.316;2024-01-15T05:31:39;93754.34;;;-3.87;72.99
35778;BME280;21899;42.662;23.316;2024-01-15T05:34:05;93745.09;;;-3.95;73.35
35778;BME280;21899;42.662;23.316;2024-01-15T05:36:30;93751.41;;;-3.89;72.88
35778;BME280;21899;42.662;23.316;2024-01-15T05:38:56;93745.09;;;-3.95;73.20
35778;BME280;21899;42.662;23.316;2024-01-15T05:41:21;93742.38;;;-3.88;73.36
35778;BME280;21899;42.662;23.316;2024-01-15T05:43:47;93727.19;;;-4.00;73.25
35778;BME280;21899;42.662;23.316;2024-01-15T05:46:12;93728.81;;;-3.80;73.05
35778;BME280;21899;42.662;23.316;2024-01-15T05:48:38;93731.78;;;-3.78;73.52
35778;BME280;21899;42.662;23.316;2024-01-15T05:51:04;93707.22;;;-3.91;73.78
35778;BME280;21899;42.662;23.316;2024-01-15T05:53:29;93717.69;;;-3.64;73.62
35778;BME280;21899;42.662;23.316;2024-01-15T05:55:54;93721.06;;;-3.63;73.53
35778;BME280;21899;42.662;23.316;2024-01-15T05:58:21;93714.00;;;-3.66;74.01
35778;BME280;21899;42.662;23.316;2024-01-15T06:00:46;93725.63;;;-3.67;74.07
35778;BME280;21899;42.662;23.316;2024-01-15T06:03:13;93720.31;;;-3.64;73.70
35778;BME280;21899;42.662;23.316;2024-01-15T06:05:38;93731.63;;;-3.67;74.28
35778;BME280;21899;42.662;23.316;2024-01-15T06:08:05;93715.97;;;-3.74;73.41
35778;BME280;21899;42.662;23.316;2024-01-15T06:10:30;93722.06;;;-3.81;73.85
35778;BME280;21899;42.662;23.316;2024-01-15T06:12:56;93709.38;;;-3.59;73.40
35778;BME280;21899;42.662;23.316;2024-01-15T06:15:21;93720.94;;;-3.30;72.50
35778;BME280;21899;42.662;23.316;2024-01-15T06:17:47;93705.81;;;-3.45;72.38
35778;BME280;21899;42.662;23.316;2024-01-15T06:20:13;93730.38;;;-3.32;72.80
35778;BME280;21899;42.662;23.316;2024-01-15T06:22:38;93724.09;;;-3.15;72.20
35778;BME280;21899;42.662;23.316;2024-01-15T06:25:07;93704.78;;;-3.28;72.21
35778;BME280;21899;42.662;23.316;2024-01-15T06:27:33;93709.09;;;-3.15;72.86
35778;BME280;21899;42.662;23.316;2024-01-15T06:29:59;93700.19;;;-3.21;72.09
35778;BME280;21899;42.662;23.316;2024-01-15T06:32:24;93717.47;;;-3.00;71.58
35778;BME280;21899;42.662;23.316;2024-01-15T06:34:50;93719.53;;;-2.88;71.14
35778;BME280;21899;42.662;23.316;2024-01-15T06:37:15;93723.69;;;-2.90;71.90
35778;BME280;21899;42.662;23.316;2024-01-15T06:39:41;93727.69;;;-2.82;71.93
35778;BME280;21899;42.662;23.316;2024-01-15T06:42:06;93708.72;;;-2.70;71.25
35778;BME280;21899;42.662;23.316;2024-01-15T06:44:32;93728.13;;;-2.45;70.81
35778;BME280;21899;42.662;23.316;2024-01-15T06:46:57;93726.13;;;-2.57;69.79
35778;BME280;21899;42.662;23.316;2024-01-15T06:49:28;93735.38;;;-2.29;70.25
35778;BME280;21899;42.662;23.316;2024-01-15T06:51:55;93714.72;;;-2.11;68.80
35778;BME280;21899;42.662;23.316;2024-01-15T06:54:20;93719.22;;;-1.92;68.33
35778;BME280;21899;42.662;23.316;2024-01-15T06:56:46;93726.44;;;-1.96;68.59
35778;BME280;21899;42.662;23.316;2024-01-15T06:59:11;93727.09;;;-1.72;67.92
35778;BME280;21899;42.662;23.316;2024-01-15T07:01:37;93713.19;;;-1.73;66.81
35778;BME280;21899;42.662;23.316;2024-01-15T07:04:03;93741.34;;;-1.89;68.27
35778;BME280;21899;42.662;23.316;2024-01-15T07:06:28;93725.16;;;-1.88;67.90
35778;BME280;21899;42.662;23.316;2024-01-15T07:08:56;93725.06;;;-1.84;67.62
35778;BME280;21899;42.662;23.316;2024-01-15T07:11:21;93730.47;;;-1.72;66.82
35778;BME280;21899;42.662;23.316;2024-01-15T07:13:47;93738.53;;;-1.63;67.41
35778;BME280;21899;42.662;23.316;2024-01-15T07:16:13;93732.78;;;-1.58;67.24
35778;BME280;21899;42.662;23.316;2024-01-15T07:18:38;93739.88;;;-1.55;66.70
35778;BME280;21899;42.662;23.316;2024-01-15T07:21:04;93731.41;;;-1.46;66.43
35778;BME280;21899;42.662;23.316;2024-01-15T07:23:31;93734.13;;;-1.33;66.08
35778;BME280;21899;42.662;23.316;2024-01-15T07:25:57;93725.59;;;-1.21;65.68
35778;BME280;21899;42.662;23.316;2024-01-15T07:28:22;93713.72;;;-1.29;65.61
35778;BME280;21899;42.662;23.316;2024-01-15T07:30:48;93718.19;;;-1.10;63.96
35778;BME280;21899;42.662;23.316;2024-01-15T07:33:13;93707.00;;;-1.14;64.13
35778;BME280;21899;42.662;23.316;2024-01-15T07:35:39;93695.94;;;-1.09;64.12
35778;BME280;21899;42.662;23.316;2024-01-15T07:38:04;93719.31;;;-0.79;63.95
35778;BME280;21899;42.662;23.316;2024-01-15T07:40:30;93722.41;;;-0.68;63.55
35778;BME280;21899;42.662;23.316;2024-01-15T07:42:55;93710.25;;;-0.49;62.81
35778;BME280;21899;42.662;23.316;2024-01-15T07:45:21;93691.84;;;-0.65;62.41
35778;BME280;21899;42.662;23.316;2024-01-15T07:47:46;93731.41;;;-0.37;61.63
35778;BME280;21899;42.662;23.316;2024-01-15T07:50:12;93722.72;;;-0.09;61.10
35778;BME280;21899;42.662;23.316;2024-01-15T07:52:39;93749.06;;;-0.21;61.25
35778;BME280;21899;42.662;23.316;2024-01-15T07:55:05;93738.03;;;-0.16;61.21
35778;BME280;21899;42.662;23.316;2024-01-15T07:57:31;93742.69;;;-0.08;59.74
35778;BME280;21899;42.662;23.316;2024-01-15T07:59:56;93705.00;;;-0.08;59.66
35778;BME280;21899;42.662;23.316;2024-01-15T08:02:22;93693.63;;;-0.05;59.58
35778;BME280;21899;42.662;23.316;2024-01-15T08:04:47;93706.06;;;-0.06;59.59
35778;BME280;21899;42.662;23.316;2024-01-15T08:07:13;93709.34;;;-0.02;60.42
35778;BME280;21899;42.662;23.316;2024-01-15T08:09:38;93694.25;;;-0.01;59.87
35778;BME280;21899;42.662;23.316;2024-01-15T08:12:04;93703.13;;;-0.08;60.97
35778;BME280;21899;42.662;23.316;2024-01-15T08:14:31;93714.03;;;-0.22;61.44
35778;BME280;21899;42.662;23.316;2024-01-15T08:16:57;93713.13;;;-0.44;61.41
35778;BME280;21899;42.662;23.316;2024-01-15T08:19:22;93737.63;;;-0.31;60.87
35778;BME280;21899;42.662;23.316;2024-01-15T08:21:49;93736.63;;;-0.21;61.20
35778;BME280;21899;42.662;23.316;2024-01-15T08:24:14;93735.72;;;-0.14;60.24
35778;BME280;21899;42.662;23.316;2024-01-15T08:26:40;93729.38;;;-0.17;60.56
35778;BME280;21899;42.662;23.316;2024-01-15T08:29:05;93727.69;;;-0.11;59.50
35778;BME280;21899;42.662;23.316;2024-01-15T08:31:31;93728.25;;;-0.03;59.49
35778;BME280;21899;42.662;23.316;2024-01-15T08:33:56;93736.38;;;0.03;60.10
35778;BME280;21899;42.662;23.316;2024-01-15T08:36:23;93707.47;;;0.12;59.13
35778;BME280;21899;42.662;23.316;2024-01-15T08:38:49;93710.56;;;0.35;59.46
35778;BME280;21899;42.662;23.316;2024-01-15T08:41:14;93698.31;;;0.29;59.00
35778;BME280;21899;42.662;23.316;2024-01-15T08:43:40;93693.03;;;0.29;59.10
35778;BME280;21899;42.662;23.316;2024-01-15T08:46:05;93701.06;;;0.63;58.64
35778;BME280;21899;42.662;23.316;2024-01-15T08:48:31;93696.00;;;0.81;58.45
35778;BME280;21899;42.662;23.316;2024-01-15T08:50:56;93697.66;;;1.00;58.38
35778;BME280;21899;42.662;23.316;2024-01-15T08:53:22;93684.91;;;0.73;58.90
35778;BME280;21899;42.662;23.316;2024-01-15T08:55:48;93697.16;;;0.55;58.98
35778;BME280;21899;42.662;23.316;2024-01-15T08:58:14;93689.84;;;0.84;59.07
35778;BME280;21899;42.662;23.316;2024-01-15T09:00:39;93686.47;;;0.71;58.68
35778;BME280;21899;42.662;23.316;2024-01-15T09:03:05;93688.06;;;0.68;58.55
35778;BME280;21899;42.662;23.316;2024-01-15T09:05:31;93667.88;;;0.87;58.68
35778;BME280;21899;42.662;23.316;2024-01-15T09:07:56;93666.78;;;0.97;58.17
35778;BME280;21899;42.662;23.316;2024-01-15T09:10:22;93671.97;;;1.01;57.99
35778;BME280;21899;42.662;23.316;2024-01-15T09:12:48;93654.75;;;0.96;57.68
35778;BME280;21899;42.662;23.316;2024-01-15T09:15:14;93622.47;;;1.01;57.28
35778;BME280;21899;42.662;23.316;2024-01-15T09:17:40;93618.50;;;1.18;56.09
35778;BME280;21899;42.662;23.316;2024-01-15T09:20:08;93624.03;;;1.11;56.24
35778;BME280;21899;42.662;23.316;2024-01-15T09:22:34;93617.56;;;1.12;56.41
35778;BME280;21899;42.662;23.316;2024-01-15T09:24:59;93623.53;;;1.25;55.88
35778;BME280;21899;42.662;23.316;2024-01-15T09:27:25;93620.97;;;1.34;55.16
35778;BME280;21899;42.662;23.316;2024-01-15T09:29:54;93617.56;;;1.12;56.36
35778;BME280;21899;42.662;23.316;2024-01-15T09:32:19;93609.78;;;1.30;55.68
35778;BME280;21899;42.662;23.316;2024-01-15T09:34:48;93622.31;;;1.17;56.21
35778;BME280;21899;42.662;23.316;2024-01-15T09:37:14;93606.28;;;1.33;55.75
35778;BME280;21899;42.662;23.316;2024-01-15T09:39:40;93598.94;;;1.16;54.82
35778;BME280;21899;42.662;23.316;2024-01-15T09:42:05;93611.31;;;0.85;56.25
35778;BME280;21899;42.662;23.316;2024-01-15T09:44:31;93601.91;;;0.84;57.36
35778;BME280;21899;42.662;23.316;2024-01-15T09:46:57;93585.25;;;0.74;57.43
35778;BME280;21899;42.662;23.316;2024-01-15T09:49:23;93587.97;;;0.83;57.66
35778;BME280;21899;42.662;23.316;2024-01-15T09:51:49;93535.19;;;0.58;57.51
35778;BME280;21899;42.662;23.316;2024-01-15T09:54:15;93577.66;;;0.63;57.15
35778;BME280;21899;42.662;23.316;2024-01-15T09:56:51;93566.03;;;0.61;57.96
35778;BME280;21899;42.662;23.316;2024-01-15T09:59:18;93557.03;;;0.71;57.49
35778;BME280;21899;42.662;23.316;2024-01-15T10:01:44;93559.41;;;0.56;58.41
35778;BME280;21899;42.662;23.316;2024-01-15T10:04:11;93551.56;;;0.53;59.71
35778;BME280;21899;42.662;23.316;2024-01-15T10:06:38;93560.59;;;0.77;58.42
35778;BME280;21899;42.662;23.316;2024-01-15T10:09:07;93562.16;;;0.87;58.70
35778;BME280;21899;42.662;23.316;2024-01-15T10:11:33;93533.66;;;1.04;58.05
35778;BME280;21899;42.662;23.316;2024-01-15T10:13:59;93557.50;;;0.91;57.68
35778;BME280;21899;42.662;23.316;2024-01-15T10:16:25;93530.28;;;1.25;57.47
35778;BME280;21899;42.662;23.316;2024-01-15T10:18:51;93542.38;;;1.35;56.22
35778;BME280;21899;42.662;23.316;2024-01-15T10:21:17;93523.72;;;1.38;56.20
35778;BME280;21899;42.662;23.316;2024-01-15T10:23:42;93527.97;;;1.58;55.36
35778;BME280;21899;42.662;23.316;2024-01-15T10:26:08;93528.66;;;1.80;54.13
35778;BME280;21899;42.662;23.316;2024-01-15T10:28:33;93502.81;;;2.02;53.51
35778;BME280;21899;42.662;23.316;2024-01-15T10:31:00;93498.44;;;2.08;52.19
35778;BME280;21899;42.662;23.316;2024-01-15T10:33:26;93483.63;;;2.38;51.01
35778;BME280;21899;42.662;23.316;2024-01-15T10:35:56;93528.81;;;2.34;51.57
35778;BME280;21899;42.662;23.316;2024-01-15T10:38:23;93489.38;;;2.36;51.29
35778;BME280;21899;42.662;23.316;2024-01-15T10:40:53;93500.72;;;2.55;51.04
35778;BME280;21899;42.662;23.316;2024-01-15T10:43:18;93502.38;;;2.88;51.68
35778;BME280;21899;42.662;23.316;2024-01-15T10:45:49;93506.19;;;2.87;48.88
35778;BME280;21899;42.662;23.316;2024-01-15T10:48:17;93496.94;;;2.83;50.72
35778;BME280;21899;42.662;23.316;2024-01-15T10:50:46;93491.03;;;2.88;49.97
35778;BME280;21899;42.662;23.316;2024-01-15T10:53:14;93479.81;;;2.93;49.17
35778;BME280;21899;42.662;23.316;2024-01-15T10:55:41;93468.19;;;2.99;49.58
35778;BME280;21899;42.662;23.316;2024-01-15T10:58:07;93465.91;;;3.25;49.31
35778;BME280;21899;42.662;23.316;2024-01-15T11:00:34;93473.78;;;2.92;50.08
35778;BME280;21899;42.662;23.316;2024-01-15T11:03:05;93482.00;;;3.22;49.12
35778;BME280;21899;42.662;23.316;2024-01-15T11:05:37;93475.78;;;3.25;48.70
35778;BME280;21899;42.662;23.316;2024-01-15T11:08:06;93463.94;;;3.53;48.52
35778;BME280;21899;42.662;23.316;2024-01-15T11:10:41;93458.63;;;3.53;48.08
35778;BME280;21899;42.662;23.316;2024-01-15T11:18:42;93450.78;;;3.58;47.04
35778;BME280;21899;42.662;23.316;2024-01-15T11:23:58;93446.41;;;3.88;46.98
35778;BME280;21899;42.662;23.316;2024-01-15T11:26:28;93420.53;;;3.65;48.25
35778;BME280;21899;42.662;23.316;2024-01-15T11:28:55;93458.09;;;3.82;48.60
35778;BME280;21899;42.662;23.316;2024-01-15T11:34:16;93446.00;;;4.90;45.61
35778;BME280;21899;42.662;23.316;2024-01-15T11:41:58;93436.19;;;5.54;44.96
35778;BME280;21899;42.662;23.316;2024-01-15T11:44:24;93428.41;;;5.36;44.88
35778;BME280;21899;42.662;23.316;2024-01-15T11:47:01;93431.31;;;5.67;44.01
35778;BME280;21899;42.662;23.316;2024-01-15T11:52:04;93415.00;;;5.80;43.58
35778;BME280;21899;42.662;23.316;2024-01-15T11:54:33;93404.22;;;6.03;43.62
35778;BME280;21899;42.662;23.316;2024-01-15T11:57:04;93411.44;;;6.18;42.67
35778;BME280;21899;42.662;23.316;2024-01-15T11:59:34;93406.88;;;6.03;43.10
35778;BME280;21899;42.662;23.316;2024-01-15T12:01:59;93397.69;;;5.55;44.43
35778;BME280;21899;42.662;23.316;2024-01-15T12:04:25;93389.75;;;5.11;45.32
35778;BME280;21899;42.662;23.316;2024-01-15T12:06:52;93412.78;;;5.29;44.75
35778;BME280;21899;42.662;23.316;2024-01-15T12:09:19;93406.56;;;5.32;44.89
35778;BME280;21899;42.662;23.316;2024-01-15T12:11:51;93384.81;;;4.90;45.20
35778;BME280;21899;42.662;23.316;2024-01-15T12:14:21;93394.81;;;4.95;45.80
35778;BME280;21899;42.662;23.316;2024-01-15T12:16:47;93363.25;;;4.88;45.68
35778;BME280;21899;42.662;23.316;2024-01-15T12:19:14;93376.25;;;4.57;46.19
35778;BME280;21899;42.662;23.316;2024-01-15T12:21:39;93378.28;;;4.23;47.30
35778;BME280;21899;42.662;23.316;2024-01-15T12:24:07;93377.72;;;4.19;47.75
35778;BME280;21899;42.662;23.316;2024-01-15T12:26:33;93394.13;;;4.18;48.83
35778;BME280;21899;42.662;23.316;2024-01-15T12:29:02;93395.38;;;4.08;48.19
35778;BME280;21899;42.662;23.316;2024-01-15T12:31:29;93386.91;;;4.18;48.39
35778;BME280;21899;42.662;23.316;2024-01-15T12:33:56;93388.28;;;4.28;47.99
35778;BME280;21899;42.662;23.316;2024-01-15T12:36:21;93389.28;;;4.16;48.14
35778;BME280;21899;42.662;23.316;2024-01-15T12:38:47;93379.69;;;4.33;48.98
35778;BME280;21899;42.662;23.316;2024-01-15T12:41:12;93341.38;;;4.25;47.77
35778;BME280;21899;42.662;23.316;2024-01-15T12:43:38;93374.31;;;4.42;48.35
35778;BME280;21899;42.662;23.316;2024-01-15T12:46:03;93354.34;;;4.47;48.00
35778;BME280;21899;42.662;23.316;2024-01-15T12:48:29;93367.38;;;4.60;47.32
35778;BME280;21899;42.662;23.316;2024-01-15T12:50:55;93371.00;;;4.47;47.99
35778;BME280;21899;42.662;23.316;2024-01-15T12:53:20;93348.47;;;4.43;47.22
35778;BME280;21899;42.662;23.316;2024-01-15T12:55:47;93362.88;;;4.51;47.82
35778;BME280;21899;42.662;23.316;2024-01-15T12:58:12;93360.28;;;4.57;47.73
35778;BME280;21899;42.662;23.316;2024-01-15T13:00:38;93356.66;;;4.69;47.54
35778;BME280;21899;42.662;23.316;2024-01-15T13:03:05;93357.59;;;4.80;46.28
35778;BME280;21899;42.662;23.316;2024-01-15T13:05:31;93359.97;;;4.93;47.08